sensor_id;sensor_type;location;lat;lon;timestamp;pressure;altitude;pressure_sealevel;temperature;humidity
29247;BME280;16272;48.188;9.964;2023-12-04T00:01:52;95996.00;;;-11.85;83.06
29247;BME280;16272;48.188;9.964;2023-12-04T00:04:18;95984.97;;;-11.92;83.38
29247;BME280;16272;48.188;9.964;2023-12-04T00:06:43;95980.47;;;-11.70;82.13
29247;BME280;16272;48.188;9.964;2023-12-04T00:09:08;95990.72;;;-11.70;81.50
29247;BME280;16272;48.188;9.964;2023-12-04T00:11:34;95982.06;;;-11.56;80.46
29247;BME280;16272;48.188;9.964;2023-12-04T00:13:59;95975.28;;;-11.60;80.65
29247;BME280;16272;48.188;9.964;2023-12-04T00:16:25;95975.34;;;-11.70;81.62
29247;BME280;16272;48.188;9.964;2023-12-04T00:18:50;95970.31;;;-11.79;82.63
29247;BME280;16272;48.188;9.964;2023-12-04T00:21:16;95964.38;;;-11.86;82.92
29247;BME280;16272;48.188;9.964;2023-12-04T00:23:41;95967.09;;;-11.99;82.89
29247;BME280;16272;48.188;9.964;2023-12-04T00:26:06;95960.94;;;-11.80;83.68
29247;BME280;16272;48.188;9.964;2023-12-04T00:28:36;95959.28;;;-11.89;83.83
29247;BME280;16272;48.188;9.964;2023-12-04T00:31:01;95959.41;;;-11.96;83.59
29247;BME280;16272;48.188;9.964;2023-12-04T00:33:26;95952.44;;;-11.85;83.46
29247;BME280;16272;48.188;9.964;2023-12-04T00:35:52;95949.91;;;-11.88;83.22
29247;BME280;16272;48.188;9.964;2023-12-04T00:38:17;95937.13;;;-11.90;83.03
29247;BME280;16272;48.188;9.964;2023-12-04T00:40:42;95941.50;;;-11.99;83.40
29247;BME280;16272;48.188;9.964;2023-12-04T00:43:08;95940.63;;;-11.98;83.13
29247;BME280;16272;48.188;9.964;2023-12-04T00:45:33;95930.28;;;-11.91;83.24
29247;BME280;16272;48.188;9.964;2023-12-04T00:47:59;95927.88;;;-12.02;83.69
29247;BME280;16272;48.188;9.964;2023-12-04T00:50:24;95926.16;;;-12.03;83.58
29247;BME280;16272;48.188;9.964;2023-12-04T00:52:49;95920.19;;;-12.03;83.65
29247;BME280;16272;48.188;9.964;2023-12-04T00:55:14;95918.59;;;-12.16;83.57
29247;BME280;16272;48.188;9.964;2023-12-04T00:57:40;95924.59;;;-12.19;83.89
29247;BME280;16272;48.188;9.964;2023-12-04T01:00:05;95914.16;;;-11.97;83.73
29247;BME280;16272;48.188;9.964;2023-12-04T01:02:31;95922.94;;;-12.26;83.77
29247;BME280;16272;48.188;9.964;2023-12-04T01:04:56;95927.00;;;-12.05;84.02
29247;BME280;16272;48.188;9.964;2023-12-04T01:07:22;95915.88;;;-11.99;83.14
29247;BME280;16272;48.188;9.964;2023-12-04T01:09:47;95921.94;;;-12.08;82.73
29247;BME280;16272;48.188;9.964;2023-12-04T01:12:13;95919.47;;;-12.22;83.48
29247;BME280;16272;48.188;9.964;2023-12-04T01:14:38;95916.09;;;-12.24;83.19
29247;BME280;16272;48.188;9.964;2023-12-04T01:17:04;95905.75;;;-12.15;82.51
29247;BME280;16272;48.188;9.964;2023-12-04T01:19:29;95909.38;;;-12.37;83.46
29247;BME280;16272;48.188;9.964;2023-12-04T01:21:54;95906.69;;;-12.21;83.24
29247;BME280;16272;48.188;9.964;2023-12-04T01:24:20;95910.22;;;-12.35;83.92
29247;BME280;16272;48.188;9.964;2023-12-04T01:26:45;95916.19;;;-12.36;83.58
29247;BME280;16272;48.188;9.964;2023-12-04T01:29:10;95916.06;;;-12.21;83.28
29247;BME280;16272;48.188;9.964;2023-12-04T01:31:35;95913.63;;;-12.36;82.65
29247;BME280;16272;48.188;9.964;2023-12-04T01:34:01;95912.84;;;-12.48;82.75
29247;BME280;16272;48.188;9.964;2023-12-04T01:36:26;95911.84;;;-12.28;83.81
29247;BME280;16272;48.188;9.964;2023-12-04T01:38:51;95900.78;;;-12.32;83.40
29247;BME280;16272;48.188;9.964;2023-12-04T01:41:17;95890.84;;;-12.69;83.65
29247;BME280;16272;48.188;9.964;2023-12-04T01:43:42;95891.66;;;-12.62;83.65
29247;BME280;16272;48.188;9.964;2023-12-04T01:46:07;95888.22;;;-12.66;83.50
29247;BME280;16272;48.188;9.964;2023-12-04T01:48:33;95891.75;;;-12.79;83.10
29247;BME280;16272;48.188;9.964;2023-12-04T01:51:00;95881.63;;;-12.95;84.08
29247;BME280;16272;48.188;9.964;2023-12-04T01:53:28;95884.03;;;-12.74;83.95
29247;BME280;16272;48.188;9.964;2023-12-04T01:55:53;95888.31;;;-12.73;82.82
29247;BME280;16272;48.188;9.964;2023-12-04T01:58:19;95883.13;;;-12.64;82.22
29247;BME280;16272;48.188;9.964;2023-12-04T02:00:45;95891.03;;;-12.98;81.79
29247;BME280;16272;48.188;9.964;2023-12-04T02:03:11;95883.34;;;-12.95;82.23
29247;BME280;16272;48.188;9.964;2023-12-04T02:05:36;95889.28;;;-12.90;82.20
29247;BME280;16272;48.188;9.964;2023-12-04T02:08:02;95884.22;;;-13.02;82.39
29247;BME280;16272;48.188;9.964;2023-12-04T02:10:28;95885.03;;;-12.97;82.32
29247;BME280;16272;48.188;9.964;2023-12-04T02:12:54;95875.63;;;-12.92;81.71
29247;BME280;16272;48.188;9.964;2023-12-04T02:15:19;95877.47;;;-13.16;81.92
29247;BME280;16272;48.188;9.964;2023-12-04T02:17:45;95881.75;;;-13.19;80.90
29247;BME280;16272;48.188;9.964;2023-12-04T02:20:13;95883.50;;;-13.27;80.82
29247;BME280;16272;48.188;9.964;2023-12-04T02:22:39;95874.94;;;-13.20;80.08
29247;BME280;16272;48.188;9.964;2023-12-04T02:25:05;95870.84;;;-13.49;79.94
29247;BME280;16272;48.188;9.964;2023-12-04T02:27:39;95875.00;;;-13.31;79.80
29247;BME280;16272;48.188;9.964;2023-12-04T02:30:11;95875.06;;;-13.43;79.19
29247;BME280;16272;48.188;9.964;2023-12-04T02:32:44;95869.16;;;-13.52;78.14
29247;BME280;16272;48.188;9.964;2023-12-04T02:35:10;95875.16;;;-13.68;78.09
29247;BME280;16272;48.188;9.964;2023-12-04T02:37:37;95867.50;;;-13.62;77.53
29247;BME280;16272;48.188;9.964;2023-12-04T02:40:03;95871.81;;;-13.84;77.95
29247;BME280;16272;48.188;9.964;2023-12-04T02:42:29;95877.78;;;-13.93;77.33
29247;BME280;16272;48.188;9.964;2023-12-04T02:44:54;95867.59;;;-13.99;78.39
29247;BME280;16272;48.188;9.964;2023-12-04T02:47:19;95864.16;;;-13.85;78.55
29247;BME280;16272;48.188;9.964;2023-12-04T02:49:45;95865.03;;;-13.96;78.45
29247;BME280;16272;48.188;9.964;2023-12-04T02:52:10;95872.66;;;-13.83;77.84
29247;BME280;16272;48.188;9.964;2023-12-04T02:54:36;95872.69;;;-13.99;77.63
29247;BME280;16272;48.188;9.964;2023-12-04T02:57:01;95871.00;;;-14.03;78.02
29247;BME280;16272;48.188;9.964;2023-12-04T02:59:26;95876.97;;;-14.13;77.69
29247;BME280;16272;48.188;9.964;2023-12-04T03:01:51;95870.19;;;-14.24;78.48
29247;BME280;16272;48.188;9.964;2023-12-04T03:04:18;95864.25;;;-14.29;78.27
29247;BME280;16272;48.188;9.964;2023-12-04T03:06:43;95862.53;;;-14.24;78.11
29247;BME280;16272;48.188;9.964;2023-12-04T03:09:09;95865.03;;;-14.02;78.34
29247;BME280;16272;48.188;9.964;2023-12-04T03:11:34;95859.94;;;-14.00;77.99
29247;BME280;16272;48.188;9.964;2023-12-04T03:14:00;95859.94;;;-14.05;77.53
29247;BME280;16272;48.188;9.964;2023-12-04T03:16:26;95852.28;;;-14.05;76.83
29247;BME280;16272;48.188;9.964;2023-12-04T03:18:51;95843.00;;;-14.29;77.83
29247;BME280;16272;48.188;9.964;2023-12-04T03:21:16;95828.53;;;-14.32;78.23
29247;BME280;16272;48.188;9.964;2023-12-04T03:23:42;95833.63;;;-14.32;77.75
29247;BME280;16272;48.188;9.964;2023-12-04T03:26:07;95829.41;;;-14.44;77.47
29247;BME280;16272;48.188;9.964;2023-12-04T03:28:32;95823.41;;;-14.29;77.36
29247;BME280;16272;48.188;9.964;2023-12-04T03:30:58;95824.19;;;-14.03;76.60
29247;BME280;16272;48.188;9.964;2023-12-04T03:33:23;95829.34;;;-14.13;76.51
29247;BME280;16272;48.188;9.964;2023-12-04T03:35:48;95833.56;;;-14.07;76.15
29247;BME280;16272;48.188;9.964;2023-12-04T03:38:14;95824.25;;;-14.13;76.34
29247;BME280;16272;48.188;9.964;2023-12-04T03:40:39;95822.56;;;-14.28;76.53
29247;BME280;16272;48.188;9.964;2023-12-04T03:43:04;95800.38;;;-13.93;76.58
29247;BME280;16272;48.188;9.964;2023-12-04T03:45:29;95803.81;;;-14.07;76.63
29247;BME280;16272;48.188;9.964;2023-12-04T03:47:55;95810.66;;;-14.36;77.23
29247;BME280;16272;48.188;9.964;2023-12-04T03:50:20;95801.22;;;-13.96;77.15
29247;BME280;16272;48.188;9.964;2023-12-04T03:52:45;95789.34;;;-14.00;76.25
29247;BME280;16272;48.188;9.964;2023-12-04T03:55:11;95785.09;;;-14.12;77.41
29247;BME280;16272;48.188;9.964;2023-12-04T03:57:36;95780.84;;;-14.08;76.41
29247;BME280;16272;48.188;9.964;2023-12-04T04:00:02;95789.34;;;-14.03;76.64
29247;BME280;16272;48.188;9.964;2023-12-04T04:02:28;95786.00;;;-14.28;77.65
29247;BME280;16272;48.188;9.964;2023-12-04T04:04:53;95773.22;;;-14.16;76.70
29247;BME280;16272;48.188;9.964;2023-12-04T04:07:19;95774.94;;;-14.16;76.75
29247;BME280;16272;48.188;9.964;2023-12-04T04:09:44;95766.47;;;-14.38;76.40
29247;BME280;16272;48.188;9.964;2023-12-04T04:12:10;95760.47;;;-14.24;76.07
29247;BME280;16272;48.188;9.964;2023-12-04T04:14:35;95763.91;;;-14.37;75.88
29247;BME280;16272;48.188;9.964;2023-12-04T04:17:00;95765.63;;;-14.36;77.02
29247;BME280;16272;48.188;9.964;2023-12-04T04:19:25;95768.94;;;-14.12;76.36
29247;BME280;16272;48.188;9.964;2023-12-04T04:21:51;95766.28;;;-13.89;75.88
29247;BME280;16272;48.188;9.964;2023-12-04T04:24:16;95766.34;;;-14.00;75.29
29247;BME280;16272;48.188;9.964;2023-12-04T04:26:41;95768.94;;;-14.15;75.42
29247;BME280;16272;48.188;9.964;2023-12-04T04:29:07;95768.94;;;-14.12;75.37
29247;BME280;16272;48.188;9.964;2023-12-04T04:31:32;95772.16;;;-13.64;74.83
29247;BME280;16272;48.188;9.964;2023-12-04T04:33:57;95768.72;;;-13.60;73.79
29247;BME280;16272;48.188;9.964;2023-12-04T04:36:22;95776.53;;;-13.92;74.83
29247;BME280;16272;48.188;9.964;2023-12-04T04:38:48;95768.09;;;-14.10;74.99
29247;BME280;16272;48.188;9.964;2023-12-04T04:41:14;95773.97;;;-13.97;74.91
29247;BME280;16272;48.188;9.964;2023-12-04T04:43:40;95775.75;;;-14.11;75.17
29247;BME280;16272;48.188;9.964;2023-12-04T04:46:05;95779.97;;;-14.09;75.75
29247;BME280;16272;48.188;9.964;2023-12-04T04:48:30;95779.16;;;-14.15;75.19
29247;BME280;16272;48.188;9.964;2023-12-04T04:50:56;95775.78;;;-14.30;75.90
29247;BME280;16272;48.188;9.964;2023-12-04T04:53:21;95769.00;;;-14.35;75.65
29247;BME280;16272;48.188;9.964;2023-12-04T04:55:47;95765.56;;;-14.17;76.09
29247;BME280;16272;48.188;9.964;2023-12-04T04:58:12;95771.47;;;-14.04;75.63
29247;BME280;16272;48.188;9.964;2023-12-04T05:00:37;95769.75;;;-13.95;75.78
29247;BME280;16272;48.188;9.964;2023-12-04T05:03:02;95770.66;;;-14.14;75.86
29247;BME280;16272;48.188;9.964;2023-12-04T05:05:28;95774.94;;;-14.38;76.78
29247;BME280;16272;48.188;9.964;2023-12-04T05:07:53;95775.75;;;-14.14;76.41
29247;BME280;16272;48.188;9.964;2023-12-04T05:10:18;95767.19;;;-14.01;75.39
29247;BME280;16272;48.188;9.964;2023-12-04T05:12:44;95768.94;;;-14.09;76.01
29247;BME280;16272;48.188;9.964;2023-12-04T05:15:09;95764.66;;;-14.07;76.77
29247;BME280;16272;48.188;9.964;2023-12-04T05:17:34;95757.81;;;-13.94;75.99
29247;BME280;16272;48.188;9.964;2023-12-04T05:19:59;95758.72;;;-14.09;75.27
29247;BME280;16272;48.188;9.964;2023-12-04T05:22:25;95753.59;;;-14.00;74.75
29247;BME280;16272;48.188;9.964;2023-12-04T05:24:50;95752.69;;;-13.91;75.49
29247;BME280;16272;48.188;9.964;2023-12-04T05:27:15;95745.97;;;-14.06;74.87
29247;BME280;16272;48.188;9.964;2023-12-04T05:29:41;95752.72;;;-13.94;75.02
29247;BME280;16272;48.188;9.964;2023-12-04T05:32:06;95741.78;;;-14.35;75.05
29247;BME280;16272;48.188;9.964;2023-12-04T05:34:31;95742.66;;;-14.37;75.75
29247;BME280;16272;48.188;9.964;2023-12-04T05:36:56;95726.47;;;-14.35;75.18
29247;BME280;16272;48.188;9.964;2023-12-04T05:39:22;95723.84;;;-14.10;75.23
29247;BME280;16272;48.188;9.964;2023-12-04T05:41:47;95724.75;;;-14.20;75.26
29247;BME280;16272;48.188;9.964;2023-12-04T05:44:13;95724.72;;;-14.14;74.99
29247;BME280;16272;48.188;9.964;2023-12-04T05:46:39;95715.31;;;-13.98;74.58
29247;BME280;16272;48.188;9.964;2023-12-04T05:49:04;95715.22;;;-13.81;75.70
29247;BME280;16272;48.188;9.964;2023-12-04T05:51:29;95715.34;;;-14.14;75.33
29247;BME280;16272;48.188;9.964;2023-12-04T05:53:54;95706.16;;;-14.53;74.68
29247;BME280;16272;48.188;9.964;2023-12-04T05:56:20;95706.16;;;-14.53;75.70
29247;BME280;16272;48.188;9.964;2023-12-04T05:58:45;95717.91;;;-14.15;75.22
29247;BME280;16272;48.188;9.964;2023-12-04T06:01:10;95717.06;;;-14.16;74.54
29247;BME280;16272;48.188;9.964;2023-12-04T06:03:35;95714.53;;;-14.19;74.69
29247;BME280;16272;48.188;9.964;2023-12-04T06:06:01;95712.56;;;-13.66;74.61
29247;BME280;16272;48.188;9.964;2023-12-04T06:08:26;95714.28;;;-13.71;74.20
29247;BME280;16272;48.188;9.964;2023-12-04T06:10:51;95715.16;;;-13.72;74.30
29247;BME280;16272;48.188;9.964;2023-12-04T06:13:17;95715.34;;;-14.14;74.07
29247;BME280;16272;48.188;9.964;2023-12-04T06:15:43;95715.34;;;-14.12;74.59
29247;BME280;16272;48.188;9.964;2023-12-04T06:18:09;95707.66;;;-14.03;74.66
29247;BME280;16272;48.188;9.964;2023-12-04T06:20:34;95697.41;;;-13.97;74.87
29247;BME280;16272;48.188;9.964;2023-12-04T06:22:59;95700.72;;;-13.79;74.99
29247;BME280;16272;48.188;9.964;2023-12-04T06:25:25;95692.25;;;-13.84;75.19
29247;BME280;16272;48.188;9.964;2023-12-04T06:27:51;95686.31;;;-13.87;74.86
29247;BME280;16272;48.188;9.964;2023-12-04T06:30:17;95696.38;;;-13.63;74.67
29247;BME280;16272;48.188;9.964;2023-12-04T06:32:42;95686.16;;;-13.60;73.55
29247;BME280;16272;48.188;9.964;2023-12-04T06:35:08;95688.72;;;-13.65;74.80
29247;BME280;16272;48.188;9.964;2023-12-04T06:37:34;95674.22;;;-13.63;76.05
29247;BME280;16272;48.188;9.964;2023-12-04T06:40:00;95676.69;;;-13.47;74.71
29247;BME280;16272;48.188;9.964;2023-12-04T06:42:28;95672.41;;;-13.44;75.86
29247;BME280;16272;48.188;9.964;2023-12-04T06:44:54;95671.47;;;-13.34;75.83
29247;BME280;16272;48.188;9.964;2023-12-04T06:47:23;95659.47;;;-13.30;74.49
29247;BME280;16272;48.188;9.964;2023-12-04T06:49:48;95665.53;;;-13.36;75.82
29247;BME280;16272;48.188;9.964;2023-12-04T06:52:13;95656.84;;;-13.18;74.86
29247;BME280;16272;48.188;9.964;2023-12-04T06:54:39;95660.22;;;-13.16;75.08
29247;BME280;16272;48.188;9.964;2023-12-04T06:57:04;95650.81;;;-13.14;75.70
29247;BME280;16272;48.188;9.964;2023-12-04T06:59:30;95646.41;;;-12.98;76.03
29247;BME280;16272;48.188;9.964;2023-12-04T07:01:55;95634.47;;;-12.97;75.23
29247;BME280;16272;48.188;9.964;2023-12-04T07:04:21;95630.22;;;-12.95;75.43
29247;BME280;16272;48.188;9.964;2023-12-04T07:06:47;95631.91;;;-12.97;75.61
29247;BME280;16272;48.188;9.964;2023-12-04T07:09:13;95633.06;;;-13.26;75.61
29247;BME280;16272;48.188;9.964;2023-12-04T07:11:38;95628.50;;;-12.95;76.36
29247;BME280;16272;48.188;9.964;2023-12-04T07:14:04;95621.28;;;-12.57;74.83
29247;BME280;16272;48.188;9.964;2023-12-04T07:16:29;95624.59;;;-12.49;75.61
29247;BME280;16272;48.188;9.964;2023-12-04T07:18:55;95611.13;;;-12.66;75.60
29247;BME280;16272;48.188;9.964;2023-12-04T07:21:20;95621.72;;;-12.24;75.00
29247;BME280;16272;48.188;9.964;2023-12-04T07:23:46;95622.44;;;-12.13;74.80
29247;BME280;16272;48.188;9.964;2023-12-04T07:26:11;95620.63;;;-12.05;74.82
29247;BME280;16272;48.188;9.964;2023-12-04T07:28:36;95614.88;;;-12.22;75.21
29247;BME280;16272;48.188;9.964;2023-12-04T07:31:02;95618.88;;;-12.03;74.79
29247;BME280;16272;48.188;9.964;2023-12-04T07:33:27;95618.44;;;-11.75;74.38
29247;BME280;16272;48.188;9.964;2023-12-04T07:35:54;95619.19;;;-11.67;74.13
29247;BME280;16272;48.188;9.964;2023-12-04T07:38:19;95613.94;;;-11.06;72.28
29247;BME280;16272;48.188;9.964;2023-12-04T07:40:45;95615.47;;;-11.47;73.69
29247;BME280;16272;48.188;9.964;2023-12-04T07:43:10;95625.63;;;-11.41;73.85
29247;BME280;16272;48.188;9.964;2023-12-04T07:45:36;95629.84;;;-11.38;73.86
29247;BME280;16272;48.188;9.964;2023-12-04T07:48:03;95620.50;;;-11.39;74.10
29247;BME280;16272;48.188;9.964;2023-12-04T07:50:28;95623.50;;;-10.69;72.67
29247;BME280;16272;48.188;9.964;2023-12-04T07:52:54;95628.16;;;-10.88;73.14
29247;BME280;16272;48.188;9.964;2023-12-04T07:55:19;95628.19;;;-11.41;74.68
29247;BME280;16272;48.188;9.964;2023-12-04T07:57:44;95633.38;;;-11.44;75.74
29247;BME280;16272;48.188;9.964;2023-12-04T08:00:10;95632.50;;;-11.44;75.66
29247;BME280;16272;48.188;9.964;2023-12-04T08:02:35;95631.66;;;-11.43;76.98
29247;BME280;16272;48.188;9.964;2023-12-04T08:05:00;95619.97;;;-11.61;78.51
29247;BME280;16272;48.188;9.964;2023-12-04T08:07:26;95619.72;;;-11.46;77.58
29247;BME280;16272;48.188;9.964;2023-12-04T08:09:51;95616.41;;;-11.54;79.35
29247;BME280;16272;48.188;9.964;2023-12-04T08:12:18;95618.88;;;-11.47;79.15
29247;BME280;16272;48.188;9.964;2023-12-04T08:14:43;95613.22;;;-11.14;78.54
29247;BME280;16272;48.188;9.964;2023-12-04T08:17:09;95597.28;;;-11.33;78.96
29247;BME280;16272;48.188;9.964;2023-12-04T08:19:34;95595.66;;;-10.87;78.28
29247;BME280;16272;48.188;9.964;2023-12-04T08:21:59;95577.53;;;-10.78;78.08
29247;BME280;16272;48.188;9.964;2023-12-04T08:24:24;95579.06;;;-10.29;76.75
29247;BME280;16272;48.188;9.964;2023-12-04T08:26:50;95574.94;;;-9.95;75.56
29247;BME280;16272;48.188;9.964;2023-12-04T08:29:16;95572.75;;;-10.12;75.11
29247;BME280;16272;48.188;9.964;2023-12-04T08:31:41;95585.50;;;-10.09;75.32
29247;BME280;16272;48.188;9.964;2023-12-04T08:34:07;95597.91;;;-10.30;76.86
29247;BME280;16272;48.188;9.964;2023-12-04T08:36:32;95600.13;;;-10.11;76.38
29247;BME280;16272;48.188;9.964;2023-12-04T08:38:57;95604.44;;;-10.15;76.17
29247;BME280;16272;48.188;9.964;2023-12-04T08:41:23;95590.34;;;-9.95;75.39
29247;BME280;16272;48.188;9.964;2023-12-04T08:43:48;95573.56;;;-9.37;74.61
29247;BME280;16272;48.188;9.964;2023-12-04T08:46:14;95579.09;;;-9.52;74.05
29247;BME280;16272;48.188;9.964;2023-12-04T08:48:42;95561.19;;;-8.88;72.17
29247;BME280;16272;48.188;9.964;2023-12-04T08:51:08;95557.72;;;-9.56;74.52
29247;BME280;16272;48.188;9.964;2023-12-04T08:53:36;95568.13;;;-9.59;74.88
29247;BME280;16272;48.188;9.964;2023-12-04T08:56:02;95569.41;;;-9.41;73.61
29247;BME280;16272;48.188;9.964;2023-12-04T08:58:28;95563.44;;;-9.81;76.05
29247;BME280;16272;48.188;9.964;2023-12-04T09:00:53;95554.09;;;-9.46;75.45
29247;BME280;16272;48.188;9.964;2023-12-04T09:03:18;95565.28;;;-9.14;73.95
29247;BME280;16272;48.188;9.964;2023-12-04T09:05:45;95569.06;;;-9.27;74.71
29247;BME280;16272;48.188;9.964;2023-12-04T09:08:11;95574.19;;;-9.63;75.26
29247;BME280;16272;48.188;9.964;2023-12-04T09:10:36;95570.75;;;-9.62;74.41
29247;BME280;16272;48.188;9.964;2023-12-04T09:13:01;95566.75;;;-9.39;75.59
29247;BME280;16272;48.188;9.964;2023-12-04T09:15:27;95579.72;;;-9.08;73.94
29247;BME280;16272;48.188;9.964;2023-12-04T09:17:52;95561.94;;;-9.17;74.85
29247;BME280;16272;48.188;9.964;2023-12-04T09:20:18;95555.31;;;-9.26;75.59
29247;BME280;16272;48.188;9.964;2023-12-04T09:22:43;95568.66;;;-9.12;74.16
29247;BME280;16272;48.188;9.964;2023-12-04T09:25:09;95552.78;;;-9.28;75.40
29247;BME280;16272;48.188;9.964;2023-12-04T09:27:34;95554.22;;;-9.17;75.09
29247;BME280;16272;48.188;9.964;2023-12-04T09:30:00;95549.69;;;-9.42;75.58
29247;BME280;16272;48.188;9.964;2023-12-04T09:32:25;95546.19;;;-8.72;74.44
29247;BME280;16272;48.188;9.964;2023-12-04T09:34:50;95545.50;;;-8.47;73.81
29247;BME280;16272;48.188;9.964;2023-12-04T09:37:16;95548.25;;;-7.96;72.25
29247;BME280;16272;48.188;9.964;2023-12-04T09:39:41;95558.94;;;-8.08;71.84
29247;BME280;16272;48.188;9.964;2023-12-04T09:42:07;95563.34;;;-7.83;72.73
29247;BME280;16272;48.188;9.964;2023-12-04T09:44:33;95576.94;;;-7.23;70.81
29247;BME280;16272;48.188;9.964;2023-12-04T09:47:01;95570.13;;;-6.99;68.58
29247;BME280;16272;48.188;9.964;2023-12-04T09:49:28;95570.41;;;-6.81;69.54
29247;BME280;16272;48.188;9.964;2023-12-04T09:51:54;95570.25;;;-7.29;69.52
29247;BME280;16272;48.188;9.964;2023-12-04T09:54:22;95554.31;;;-7.42;69.75
29247;BME280;16272;48.188;9.964;2023-12-04T09:56:49;95565.25;;;-6.58;68.52
29247;BME280;16272;48.188;9.964;2023-12-04T09:59:15;95556.81;;;-6.87;67.87
29247;BME280;16272;48.188;9.964;2023-12-04T10:01:43;95542.75;;;-7.30;69.00
29247;BME280;16272;48.188;9.964;2023-12-04T10:04:09;95543.59;;;-7.29;70.92
29247;BME280;16272;48.188;9.964;2023-12-04T10:06:37;95524.31;;;-6.94;69.55
29247;BME280;16272;48.188;9.964;2023-12-04T10:09:03;95497.69;;;-6.71;71.17
29247;BME280;16272;48.188;9.964;2023-12-04T10:11:29;95502.28;;;-7.28;70.95
29247;BME280;16272;48.188;9.964;2023-12-04T10:13:55;95509.66;;;-6.92;71.05
29247;BME280;16272;48.188;9.964;2023-12-04T10:16:35;95500.41;;;-6.99;70.69
29247;BME280;16272;48.188;9.964;2023-12-04T10:19:21;95492.88;;;-6.80;70.51
29247;BME280;16272;48.188;9.964;2023-12-04T10:21:49;95478.47;;;-6.62;69.89
29247;BME280;16272;48.188;9.964;2023-12-04T10:24:34;95477.19;;;-5.84;69.00
29247;BME280;16272;48.188;9.964;2023-12-04T10:27:02;95470.22;;;-5.82;68.35
29247;BME280;16272;48.188;9.964;2023-12-04T10:29:46;95474.69;;;-5.22;67.40
29247;BME280;16272;48.188;9.964;2023-12-04T10:32:12;95464.66;;;-5.73;67.82
29247;BME280;16272;48.188;9.964;2023-12-04T10:34:38;95461.16;;;-5.08;65.98
29247;BME280;16272;48.188;9.964;2023-12-04T10:37:04;95459.94;;;-5.00;65.21
29247;BME280;16272;48.188;9.964;2023-12-04T10:39:30;95457.75;;;-5.29;66.16
29247;BME280;16272;48.188;9.964;2023-12-04T10:42:02;95458.56;;;-4.88;68.89
29247;BME280;16272;48.188;9.964;2023-12-04T10:44:28;95448.38;;;-4.53;68.61
29247;BME280;16272;48.188;9.964;2023-12-04T10:46:55;95444.59;;;-4.65;64.43
29247;BME280;16272;48.188;9.964;2023-12-04T10:49:26;95438.41;;;-4.81;64.39
29247;BME280;16272;48.188;9.964;2023-12-04T10:51:52;95437.44;;;-4.59;66.06
29247;BME280;16272;48.188;9.964;2023-12-04T10:54:18;95438.47;;;-5.02;64.90
29247;BME280;16272;48.188;9.964;2023-12-04T10:56:44;95420.47;;;-5.05;66.71
29247;BME280;16272;48.188;9.964;2023-12-04T10:59:15;95425.34;;;-4.99;67.36
29247;BME280;16272;48.188;9.964;2023-12-04T11:01:44;95404.56;;;-4.57;66.78
29247;BME280;16272;48.188;9.964;2023-12-04T11:04:16;95403.13;;;-4.84;66.91
29247;BME280;16272;48.188;9.964;2023-12-04T11:06:49;95405.81;;;-5.88;69.53
29247;BME280;16272;48.188;9.964;2023-12-04T11:09:17;95396.34;;;-5.89;70.69
29247;BME280;16272;48.188;9.964;2023-12-04T11:11:46;95398.88;;;-5.65;70.83
29247;BME280;16272;48.188;9.964;2023-12-04T11:14:15;95401.19;;;-5.39;70.04
29247;BME280;16272;48.188;9.964;2023-12-04T11:16:48;95387.06;;;-5.31;69.71
29247;BME280;16272;48.188;9.964;2023-12-04T11:19:25;95390.09;;;-4.82;68.54
29247;BME280;16272;48.188;9.964;2023-12-04T11:21:53;95377.34;;;-5.06;69.92
29247;BME280;16272;48.188;9.964;2023-12-04T11:24:18;95366.00;;;-5.63;70.64
29247;BME280;16272;48.188;9.964;2023-12-04T11:26:46;95377.47;;;-5.91;72.41
29247;BME280;16272;48.188;9.964;2023-12-04T11:29:13;95385.13;;;-5.67;72.55
29247;BME280;16272;48.188;9.964;2023-12-04T11:31:39;95383.38;;;-4.48;68.37
29247;BME280;16272;48.188;9.964;2023-12-04T11:34:04;95380.59;;;-4.82;69.40
29247;BME280;16272;48.188;9.964;2023-12-04T11:36:33;95377.50;;;-4.71;69.24
29247;BME280;16272;48.188;9.964;2023-12-04T11:39:00;95371.31;;;-4.87;68.24
29247;BME280;16272;48.188;9.964;2023-12-04T11:41:25;95378.72;;;-4.99;69.58
29247;BME280;16272;48.188;9.964;2023-12-04T11:43:52;95383.72;;;-4.94;69.63
29247;BME280;16272;48.188;9.964;2023-12-04T11:46:22;95373.94;;;-4.68;68.34
29247;BME280;16272;48.188;9.964;2023-12-04T11:48:55;95374.56;;;-4.63;68.53
29247;BME280;16272;48.188;9.964;2023-12-04T11:54:07;95363.78;;;-4.92;70.05
29247;BME280;16272;48.188;9.964;2023-12-04T11:56:32;95351.72;;;-4.74;70.64
29247;BME280;16272;48.188;9.964;2023-12-04T11:59:05;95342.34;;;-4.57;69.51
29247;BME280;16272;48.188;9.964;2023-12-04T12:01:36;95342.44;;;-4.59;69.17
29247;BME280;16272;48.188;9.964;2023-12-04T12:04:04;95339.50;;;-4.34;68.36
29247;BME280;16272;48.188;9.964;2023-12-04T12:06:29;95337.81;;;-4.35;69.27
29247;BME280;16272;48.188;9.964;2023-12-04T12:08:55;95352.34;;;-4.13;68.36
29247;BME280;16272;48.188;9.964;2023-12-04T12:11:22;95360.38;;;-4.00;67.86
29247;BME280;16272;48.188;9.964;2023-12-04T12:13:48;95358.81;;;-3.68;68.45
29247;BME280;16272;48.188;9.964;2023-12-04T12:16:13;95344.81;;;-3.48;67.06
29247;BME280;16272;48.188;9.964;2023-12-04T12:18:40;95338.88;;;-3.33;68.03
29247;BME280;16272;48.188;9.964;2023-12-04T12:21:06;95333.50;;;-3.80;68.32
29247;BME280;16272;48.188;9.964;2023-12-04T12:23:32;95324.28;;;-4.05;70.94
29247;BME280;16272;48.188;9.964;2023-12-04T12:25:58;95308.25;;;-4.86;73.14
29247;BME280;16272;48.188;9.964;2023-12-04T12:28:23;95303.13;;;-5.07;74.79
29247;BME280;16272;48.188;9.964;2023-12-04T12:30:48;95309.44;;;-4.55;72.89
29247;BME280;16272;48.188;9.964;2023-12-04T12:33:15;95330.72;;;-3.60;70.21
29247;BME280;16272;48.188;9.964;2023-12-04T12:35:41;95306.06;;;-4.21;71.37
29247;BME280;16272;48.188;9.964;2023-12-04T12:38:07;95304.31;;;-4.76;73.82
29247;BME280;16272;48.188;9.964;2023-12-04T12:40:32;95317.19;;;-2.66;70.84
29247;BME280;16272;48.188;9.964;2023-12-04T12:43:08;95306.38;;;-4.10;70.06
29247;BME280;16272;48.188;9.964;2023-12-04T12:45:40;95279.28;;;-4.39;73.65
29247;BME280;16272;48.188;9.964;2023-12-04T12:48:10;95297.69;;;-3.91;73.60
29247;BME280;16272;48.188;9.964;2023-12-04T12:50:35;95271.81;;;-3.75;72.40